sensor_id;sensor_type;location;lat;lon;timestamp;temperature;humidity
25937;DHT22;13733;51.178;4.450;2023-07-20T00:01:14;18.20;99.90
25937;DHT22;13733;51.178;4.450;2023-07-20T00:03:39;18.40;99.90
25937;DHT22;13733;51.178;4.450;2023-07-20T00:06:05;18.50;99.90
25937;DHT22;13733;51.178;4.450;2023-07-20T00:08:31;18.50;99.90
25937;DHT22;13733;51.178;4.450;2023-07-20T00:10:57;18.60;99.90
25937;DHT22;13733;51.178;4.450;2023-07-20T00:13:23;18.50;99.90
25937;DHT22;13733;51.178;4.450;2023-07-20T00:15:48;18.50;99.90
25937;DHT22;13733;51.178;4.450;2023-07-20T00:18:15;18.50;99.90
25937;DHT22;13733;51.178;4.450;2023-07-20T00:20:40;18.40;99.90
25937;DHT22;13733;51.178;4.450;2023-07-20T00:23:06;18.20;99.90
25937;DHT22;13733;51.178;4.450;2023-07-20T00:25:32;18.20;99.90
25937;DHT22;13733;51.178;4.450;2023-07-20T00:27:59;18.10;99.90
25937;DHT22;13733;51.178;4.450;2023-07-20T00:30:25;17.90;99.90
25937;DHT22;13733;51.178;4.450;2023-07-20T00:32:50;17.80;99.90
25937;DHT22;13733;51.178;4.450;2023-07-20T00:35:16;17.60;99.90
25937;DHT22;13733;51.178;4.450;2023-07-20T00:37:42;17.60;99.90
25937;DHT22;13733;51.178;4.450;2023-07-20T00:40:08;17.60;99.90
25937;DHT22;13733;51.178;4.450;2023-07-20T00:42:34;17.60;99.90
25937;DHT22;13733;51.178;4.450;2023-07-20T00:45:02;17.70;99.90
25937;DHT22;13733;51.178;4.450;2023-07-20T00:47:28;17.70;99.90
25937;DHT22;13733;51.178;4.450;2023-07-20T00:49:54;17.70;99.90
25937;DHT22;13733;51.178;4.450;2023-07-20T00:52:23;17.70;99.90
25937;DHT22;13733;51.178;4.450;2023-07-20T00:54:50;17.60;99.90
25937;DHT22;13733;51.178;4.450;2023-07-20T00:57:17;17.70;99.90
25937;DHT22;13733;51.178;4.450;2023-07-20T00:59:44;17.60;99.90
25937;DHT22;13733;51.178;4.450;2023-07-20T01:02:10;17.60;99.90
25937;DHT22;13733;51.178;4.450;2023-07-20T01:04:36;17.80;99.90
25937;DHT22;13733;51.178;4.450;2023-07-20T01:07:26;17.70;99.90
25937;DHT22;13733;51.178;4.450;2023-07-20T01:10:16;17.80;99.90
25937;DHT22;13733;51.178;4.450;2023-07-20T01:12:47;17.60;99.90
25937;DHT22;13733;51.178;4.450;2023-07-20T01:15:17;17.50;99.90
25937;DHT22;13733;51.178;4.450;2023-07-20T01:17:42;17.50;99.90
25937;DHT22;13733;51.178;4.450;2023-07-20T01:20:12;17.40;99.90
25937;DHT22;13733;51.178;4.450;2023-07-20T01:22:52;17.40;99.90
25937;DHT22;13733;51.178;4.450;2023-07-20T01:28:48;17.50;99.90
25937;DHT22;13733;51.178;4.450;2023-07-20T01:31:26;17.50;99.90
25937;DHT22;13733;51.178;4.450;2023-07-20T01:33:56;17.60;99.90
25937;DHT22;13733;51.178;4.450;2023-07-20T01:36:24;17.40;99.90
25937;DHT22;13733;51.178;4.450;2023-07-20T01:38:54;17.30;99.90
25937;DHT22;13733;51.178;4.450;2023-07-20T01:41:20;17.20;99.90
25937;DHT22;13733;51.178;4.450;2023-07-20T01:43:47;17.20;99.90
25937;DHT22;13733;51.178;4.450;2023-07-20T01:46:12;17.20;99.90
25937;DHT22;13733;51.178;4.450;2023-07-20T01:48:38;17.30;99.90
25937;DHT22;13733;51.178;4.450;2023-07-20T01:51:04;17.30;99.90
25937;DHT22;13733;51.178;4.450;2023-07-20T01:53:30;17.30;99.90
25937;DHT22;13733;51.178;4.450;2023-07-20T01:55:57;17.30;99.90
25937;DHT22;13733;51.178;4.450;2023-07-20T01:58:24;17.30;99.90
25937;DHT22;13733;51.178;4.450;2023-07-20T02:00:50;17.20;99.90
25937;DHT22;13733;51.178;4.450;2023-07-20T02:03:15;17.30;99.90
25937;DHT22;13733;51.178;4.450;2023-07-20T02:05:44;17.40;99.90
25937;DHT22;13733;51.178;4.450;2023-07-20T02:08:10;17.20;99.90
25937;DHT22;13733;51.178;4.450;2023-07-20T02:10:36;17.10;99.90
25937;DHT22;13733;51.178;4.450;2023-07-20T02:13:02;17.20;99.90
25937;DHT22;13733;51.178;4.450;2023-07-20T02:15:28;17.10;99.90
25937;DHT22;13733;51.178;4.450;2023-07-20T02:17:54;17.00;99.90
25937;DHT22;13733;51.178;4.450;2023-07-20T02:20:20;16.90;99.90
25937;DHT22;13733;51.178;4.450;2023-07-20T02:22:46;17.00;99.90
25937;DHT22;13733;51.178;4.450;2023-07-20T02:25:12;16.90;99.90
25937;DHT22;13733;51.178;4.450;2023-07-20T02:27:38;16.90;99.90
25937;DHT22;13733;51.178;4.450;2023-07-20T02:30:05;17.00;99.90
25937;DHT22;13733;51.178;4.450;2023-07-20T02:32:32;17.10;99.90
25937;DHT22;13733;51.178;4.450;2023-07-20T02:34:58;17.20;99.90
25937;DHT22;13733;51.178;4.450;2023-07-20T02:37:24;17.30;99.90
25937;DHT22;13733;51.178;4.450;2023-07-20T02:39:50;17.30;99.90
25937;DHT22;13733;51.178;4.450;2023-07-20T02:42:16;17.30;99.90
25937;DHT22;13733;51.178;4.450;2023-07-20T02:44:42;17.30;99.90
25937;DHT22;13733;51.178;4.450;2023-07-20T02:47:08;17.50;99.90
25937;DHT22;13733;51.178;4.450;2023-07-20T02:49:35;17.30;99.90
25937;DHT22;13733;51.178;4.450;2023-07-20T02:52:01;17.20;99.90
25937;DHT22;13733;51.178;4.450;2023-07-20T02:54:26;17.20;99.90
25937;DHT22;13733;51.178;4.450;2023-07-20T02:56:52;17.20;99.90
25937;DHT22;13733;51.178;4.450;2023-07-20T02:59:18;17.30;99.90
25937;DHT22;13733;51.178;4.450;2023-07-20T03:01:44;17.30;99.90
25937;DHT22;13733;51.178;4.450;2023-07-20T03:04:10;17.40;99.90
25937;DHT22;13733;51.178;4.450;2023-07-20T03:06:36;17.60;99.90
25937;DHT22;13733;51.178;4.450;2023-07-20T03:09:03;17.60;99.90
25937;DHT22;13733;51.178;4.450;2023-07-20T03:11:32;17.50;99.90
25937;DHT22;13733;51.178;4.450;2023-07-20T03:13:58;17.40;99.90
25937;DHT22;13733;51.178;4.450;2023-07-20T03:16:24;17.50;99.90
25937;DHT22;13733;51.178;4.450;2023-07-20T03:18:51;17.50;99.90
25937;DHT22;13733;51.178;4.450;2023-07-20T03:21:17;17.50;99.90
25937;DHT22;13733;51.178;4.450;2023-07-20T03:23:43;17.30;99.90
25937;DHT22;13733;51.178;4.450;2023-07-20T03:26:10;17.20;99.90
25937;DHT22;13733;51.178;4.450;2023-07-20T03:28:40;17.10;99.90
25937;DHT22;13733;51.178;4.450;2023-07-20T03:31:06;17.10;99.90
25937;DHT22;13733;51.178;4.450;2023-07-20T03:33:35;17.10;99.90
25937;DHT22;13733;51.178;4.450;2023-07-20T03:36:02;17.10;99.90
25937;DHT22;13733;51.178;4.450;2023-07-20T03:38:29;17.20;99.90
25937;DHT22;13733;51.178;4.450;2023-07-20T03:40:57;17.10;99.90
25937;DHT22;13733;51.178;4.450;2023-07-20T03:43:24;17.00;99.90
25937;DHT22;13733;51.178;4.450;2023-07-20T03:45:51;17.00;99.90
25937;DHT22;13733;51.178;4.450;2023-07-20T03:48:19;17.00;99.90
25937;DHT22;13733;51.178;4.450;2023-07-20T03:50:46;17.10;99.90
25937;DHT22;13733;51.178;4.450;2023-07-20T03:53:12;17.10;99.90
25937;DHT22;13733;51.178;4.450;2023-07-20T03:55:38;17.30;99.90
25937;DHT22;13733;51.178;4.450;2023-07-20T03:58:07;17.30;99.90
25937;DHT22;13733;51.178;4.450;2023-07-20T04:00:33;17.40;99.90
25937;DHT22;13733;51.178;4.450;2023-07-20T04:02:59;17.50;99.90
25937;DHT22;13733;51.178;4.450;2023-07-20T04:05:25;17.60;99.90
25937;DHT22;13733;51.178;4.450;2023-07-20T04:07:51;17.80;99.90
25937;DHT22;13733;51.178;4.450;2023-07-20T04:10:18;17.90;99.90
25937;DHT22;13733;51.178;4.450;2023-07-20T04:12:47;17.90;99.90
25937;DHT22;13733;51.178;4.450;2023-07-20T04:15:13;18.00;99.90
25937;DHT22;13733;51.178;4.450;2023-07-20T04:17:40;18.20;99.90
25937;DHT22;13733;51.178;4.450;2023-07-20T04:20:07;18.40;99.90
25937;DHT22;13733;51.178;4.450;2023-07-20T04:22:33;18.50;99.90
25937;DHT22;13733;51.178;4.450;2023-07-20T04:24:59;18.40;99.90
25937;DHT22;13733;51.178;4.450;2023-07-20T04:27:25;18.30;99.90
25937;DHT22;13733;51.178;4.450;2023-07-20T04:29:51;18.30;99.90
25937;DHT22;13733;51.178;4.450;2023-07-20T04:32:17;18.20;99.90
25937;DHT22;13733;51.178;4.450;2023-07-20T04:34:43;18.30;99.90
25937;DHT22;13733;51.178;4.450;2023-07-20T04:37:09;18.30;99.90
25937;DHT22;13733;51.178;4.450;2023-07-20T04:39:36;18.30;99.90
25937;DHT22;13733;51.178;4.450;2023-07-20T04:42:07;18.30;99.90
25937;DHT22;13733;51.178;4.450;2023-07-20T04:44:33;18.30;99.90
25937;DHT22;13733;51.178;4.450;2023-07-20T04:46:59;18.40;99.90
25937;DHT22;13733;51.178;4.450;2023-07-20T04:49:25;18.30;99.90
25937;DHT22;13733;51.178;4.450;2023-07-20T04:51:51;18.30;99.90
25937;DHT22;13733;51.178;4.450;2023-07-20T04:54:18;18.30;99.90
25937;DHT22;13733;51.178;4.450;2023-07-20T04:56:45;18.40;99.90
25937;DHT22;13733;51.178;4.450;2023-07-20T04:59:12;18.40;99.90
25937;DHT22;13733;51.178;4.450;2023-07-20T05:01:38;18.50;99.90
25937;DHT22;13733;51.178;4.450;2023-07-20T05:04:04;18.50;99.90
25937;DHT22;13733;51.178;4.450;2023-07-20T05:06:31;18.50;99.90
25937;DHT22;13733;51.178;4.450;2023-07-20T05:09:00;18.60;99.90
25937;DHT22;13733;51.178;4.450;2023-07-20T05:11:26;18.70;99.90
25937;DHT22;13733;51.178;4.450;2023-07-20T05:13:52;18.80;99.90
25937;DHT22;13733;51.178;4.450;2023-07-20T05:16:18;18.80;99.90
25937;DHT22;13733;51.178;4.450;2023-07-20T05:18:44;18.90;99.90
25937;DHT22;13733;51.178;4.450;2023-07-20T05:21:11;18.80;99.90
25937;DHT22;13733;51.178;4.450;2023-07-20T05:23:37;18.90;99.90
25937;DHT22;13733;51.178;4.450;2023-07-20T05:26:03;18.90;99.90
25937;DHT22;13733;51.178;4.450;2023-07-20T05:28:29;19.00;99.90
25937;DHT22;13733;51.178;4.450;2023-07-20T05:30:55;18.90;99.90
25937;DHT22;13733;51.178;4.450;2023-07-20T05:33:21;18.90;99.90
25937;DHT22;13733;51.178;4.450;2023-07-20T05:35:47;18.80;99.90
25937;DHT22;13733;51.178;4.450;2023-07-20T05:38:13;18.70;99.90
25937;DHT22;13733;51.178;4.450;2023-07-20T05:40:43;18.80;99.90
25937;DHT22;13733;51.178;4.450;2023-07-20T05:43:09;18.90;99.90
25937;DHT22;13733;51.178;4.450;2023-07-20T05:45:35;19.10;99.90
25937;DHT22;13733;51.178;4.450;2023-07-20T05:48:01;19.10;99.90
25937;DHT22;13733;51.178;4.450;2023-07-20T05:50:26;19.20;99.90
25937;DHT22;13733;51.178;4.450;2023-07-20T05:52:53;19.40;99.90
25937;DHT22;13733;51.178;4.450;2023-07-20T05:55:19;19.40;99.90
25937;DHT22;13733;51.178;4.450;2023-07-20T05:57:45;19.40;99.90
25937;DHT22;13733;51.178;4.450;2023-07-20T06:00:12;19.20;99.90
25937;DHT22;13733;51.178;4.450;2023-07-20T06:02:38;19.10;99.90
25937;DHT22;13733;51.178;4.450;2023-07-20T06:05:08;19.10;99.90
25937;DHT22;13733;51.178;4.450;2023-07-20T06:07:38;19.20;99.90
25937;DHT22;13733;51.178;4.450;2023-07-20T06:10:04;19.30;99.90
25937;DHT22;13733;51.178;4.450;2023-07-20T06:12:31;19.50;99.90
25937;DHT22;13733;51.178;4.450;2023-07-20T06:15:01;19.70;99.90
25937;DHT22;13733;51.178;4.450;2023-07-20T06:17:27;19.80;99.90
25937;DHT22;13733;51.178;4.450;2023-07-20T06:19:53;19.90;99.90
25937;DHT22;13733;51.178;4.450;2023-07-20T06:22:19;20.00;99.90
25937;DHT22;13733;51.178;4.450;2023-07-20T06:24:46;20.00;99.90
25937;DHT22;13733;51.178;4.450;2023-07-20T06:27:12;20.00;99.90
25937;DHT22;13733;51.178;4.450;2023-07-20T06:29:38;20.00;99.90
25937;DHT22;13733;51.178;4.450;2023-07-20T06:32:05;20.20;99.90
25937;DHT22;13733;51.178;4.450;2023-07-20T06:34:31;20.50;99.90
25937;DHT22;13733;51.178;4.450;2023-07-20T06:36:56;20.50;99.90
25937;DHT22;13733;51.178;4.450;2023-07-20T06:39:22;20.50;99.90
25937;DHT22;13733;51.178;4.450;2023-07-20T06:41:48;20.60;99.90
25937;DHT22;13733;51.178;4.450;2023-07-20T06:44:14;20.60;99.90
25937;DHT22;13733;51.178;4.450;2023-07-20T06:46:40;20.50;99.90
25937;DHT22;13733;51.178;4.450;2023-07-20T06:49:07;20.60;99.90
25937;DHT22;13733;51.178;4.450;2023-07-20T06:51:35;20.60;99.90
25937;DHT22;13733;51.178;4.450;2023-07-20T06:54:01;20.30;99.90
25937;DHT22;13733;51.178;4.450;2023-07-20T06:56:27;20.20;99.90
25937;DHT22;13733;51.178;4.450;2023-07-20T06:58:53;20.50;99.90
25937;DHT22;13733;51.178;4.450;2023-07-20T07:01:19;20.80;99.90
25937;DHT22;13733;51.178;4.450;2023-07-20T07:03:48;21.10;99.90
25937;DHT22;13733;51.178;4.450;2023-07-20T07:06:14;21.30;99.90
25937;DHT22;13733;51.178;4.450;2023-07-20T07:08:40;21.30;99.90
25937;DHT22;13733;51.178;4.450;2023-07-20T07:11:05;21.40;99.90
25937;DHT22;13733;51.178;4.450;2023-07-20T07:13:31;21.40;99.90
25937;DHT22;13733;51.178;4.450;2023-07-20T07:15:57;21.50;99.90
25937;DHT22;13733;51.178;4.450;2023-07-20T07:18:23;21.60;99.90
25937;DHT22;13733;51.178;4.450;2023-07-20T07:20:53;21.50;99.90
25937;DHT22;13733;51.178;4.450;2023-07-20T07:23:20;21.30;99.90
25937;DHT22;13733;51.178;4.450;2023-07-20T07:25:46;21.40;99.90
25937;DHT22;13733;51.178;4.450;2023-07-20T07:28:12;21.40;99.90
25937;DHT22;13733;51.178;4.450;2023-07-20T07:30:38;21.20;99.90
25937;DHT22;13733;51.178;4.450;2023-07-20T07:33:05;21.20;99.90
25937;DHT22;13733;51.178;4.450;2023-07-20T07:35:31;21.30;99.90
25937;DHT22;13733;51.178;4.450;2023-07-20T07:37:58;21.20;99.90
25937;DHT22;13733;51.178;4.450;2023-07-20T07:40:23;21.20;99.90
25937;DHT22;13733;51.178;4.450;2023-07-20T07:42:49;21.40;99.90
25937;DHT22;13733;51.178;4.450;2023-07-20T07:45:15;21.70;99.90
25937;DHT22;13733;51.178;4.450;2023-07-20T07:47:43;21.90;99.90
25937;DHT22;13733;51.178;4.450;2023-07-20T07:50:09;22.30;99.90
25937;DHT22;13733;51.178;4.450;2023-07-20T07:52:35;22.50;99.90
25937;DHT22;13733;51.178;4.450;2023-07-20T07:55:01;22.70;99.90
25937;DHT22;13733;51.178;4.450;2023-07-20T07:57:26;22.80;99.90
25937;DHT22;13733;51.178;4.450;2023-07-20T07:59:52;22.80;99.90
25937;DHT22;13733;51.178;4.450;2023-07-20T08:02:18;23.00;99.90
25937;DHT22;13733;51.178;4.450;2023-07-20T08:04:44;23.10;99.90
25937;DHT22;13733;51.178;4.450;2023-07-20T08:07:10;23.10;99.90
25937;DHT22;13733;51.178;4.450;2023-07-20T08:09:36;23.10;99.90
25937;DHT22;13733;51.178;4.450;2023-07-20T08:12:02;23.00;99.90
25937;DHT22;13733;51.178;4.450;2023-07-20T08:14:29;23.20;99.90
25937;DHT22;13733;51.178;4.450;2023-07-20T08:16:55;23.40;99.90
25937;DHT22;13733;51.178;4.450;2023-07-20T08:19:20;23.70;99.90
25937;DHT22;13733;51.178;4.450;2023-07-20T08:21:46;23.90;99.90
25937;DHT22;13733;51.178;4.450;2023-07-20T08:24:12;24.00;99.90
25937;DHT22;13733;51.178;4.450;2023-07-20T08:26:38;24.30;99.90
25937;DHT22;13733;51.178;4.450;2023-07-20T08:29:03;24.50;99.90
25937;DHT22;13733;51.178;4.450;2023-07-20T08:31:29;24.40;99.90
25937;DHT22;13733;51.178;4.450;2023-07-20T08:33:55;23.90;99.90
25937;DHT22;13733;51.178;4.450;2023-07-20T08:36:23;23.90;99.90
25937;DHT22;13733;51.178;4.450;2023-07-20T08:38:49;23.50;99.90
25937;DHT22;13733;51.178;4.450;2023-07-20T08:41:14;23.60;99.90
25937;DHT22;13733;51.178;4.450;2023-07-20T08:43:42;23.70;99.90
25937;DHT22;13733;51.178;4.450;2023-07-20T08:46:11;24.00;99.90
25937;DHT22;13733;51.178;4.450;2023-07-20T08:48:40;24.20;99.90
25937;DHT22;13733;51.178;4.450;2023-07-20T08:51:06;24.10;99.90
25937;DHT22;13733;51.178;4.450;2023-07-20T08:53:32;24.30;99.90
25937;DHT22;13733;51.178;4.450;2023-07-20T08:55:59;24.30;99.90
25937;DHT22;13733;51.178;4.450;2023-07-20T08:58:27;23.80;99.90
25937;DHT22;13733;51.178;4.450;2023-07-20T09:00:54;23.80;99.90
25937;DHT22;13733;51.178;4.450;2023-07-20T09:03:21;23.80;99.90
25937;DHT22;13733;51.178;4.450;2023-07-20T09:05:47;23.90;99.90
25937;DHT22;13733;51.178;4.450;2023-07-20T09:08:13;24.10;99.90
25937;DHT22;13733;51.178;4.450;2023-07-20T09:10:39;24.40;99.90
25937;DHT22;13733;51.178;4.450;2023-07-20T09:13:05;24.60;99.90
25937;DHT22;13733;51.178;4.450;2023-07-20T09:15:30;24.40;99.90
25937;DHT22;13733;51.178;4.450;2023-07-20T09:17:58;24.30;99.90
25937;DHT22;13733;51.178;4.450;2023-07-20T09:20:27;24.40;99.90
25937;DHT22;13733;51.178;4.450;2023-07-20T09:22:56;24.50;99.90
25937;DHT22;13733;51.178;4.450;2023-07-20T09:25:22;24.40;99.90
25937;DHT22;13733;51.178;4.450;2023-07-20T09:27:49;24.30;98.40
25937;DHT22;13733;51.178;4.450;2023-07-20T09:30:16;24.20;99.50
25937;DHT22;13733;51.178;4.450;2023-07-20T09:32:49;24.10;99.90
25937;DHT22;13733;51.178;4.450;2023-07-20T09:35:20;24.10;99.70
25937;DHT22;13733;51.178;4.450;2023-07-20T09:40:19;23.70;99.90
25937;DHT22;13733;51.178;4.450;2023-07-20T09:42:45;23.40;99.90
25937;DHT22;13733;51.178;4.450;2023-07-20T09:45:12;23.50;99.90
25937;DHT22;13733;51.178;4.450;2023-07-20T09:47:38;23.90;99.90
25937;DHT22;13733;51.178;4.450;2023-07-20T09:50:05;24.30;99.90
25937;DHT22;13733;51.178;4.450;2023-07-20T09:52:40;24.40;99.90
25937;DHT22;13733;51.178;4.450;2023-07-20T09:55:09;24.50;99.90
25937;DHT22;13733;51.178;4.450;2023-07-20T09:57:37;24.70;99.90
25937;DHT22;13733;51.178;4.450;2023-07-20T10:00:07;25.10;99.70
25937;DHT22;13733;51.178;4.450;2023-07-20T10:02:43;25.60;98.50
25937;DHT22;13733;51.178;4.450;2023-07-20T10:05:12;25.90;97.80
25937;DHT22;13733;51.178;4.450;2023-07-20T10:07:52;26.20;96.30
25937;DHT22;13733;51.178;4.450;2023-07-20T10:10:19;26.20;95.90
25937;DHT22;13733;51.178;4.450;2023-07-20T10:12:49;25.90;95.90
25937;DHT22;13733;51.178;4.450;2023-07-20T10:15:28;26.00;95.90
25937;DHT22;13733;51.178;4.450;2023-07-20T10:18:18;26.00;95.40
25937;DHT22;13733;51.178;4.450;2023-07-20T10:20:49;25.90;95.70
25937;DHT22;13733;51.178;4.450;2023-07-20T10:23:17;26.00;95.10
25937;DHT22;13733;51.178;4.450;2023-07-20T10:25:43;26.40;93.10
25937;DHT22;13733;51.178;4.450;2023-07-20T10:28:10;26.20;92.80
25937;DHT22;13733;51.178;4.450;2023-07-20T10:30:37;26.40;92.10
25937;DHT22;13733;51.178;4.450;2023-07-20T10:33:03;26.20;92.90
25937;DHT22;13733;51.178;4.450;2023-07-20T10:35:30;26.00;93.00
25937;DHT22;13733;51.178;4.450;2023-07-20T10:38:02;26.10;93.40
25937;DHT22;13733;51.178;4.450;2023-07-20T10:40:32;26.00;93.00
25937;DHT22;13733;51.178;4.450;2023-07-20T10:45:34;26.00;91.20
25937;DHT22;13733;51.178;4.450;2023-07-20T10:48:05;26.10;90.70
25937;DHT22;13733;51.178;4.450;2023-07-20T10:50:33;26.00;91.20
25937;DHT22;13733;51.178;4.450;2023-07-20T10:53:17;26.00;92.00
25937;DHT22;13733;51.178;4.450;2023-07-20T10:55:43;25.70;91.50
25937;DHT22;13733;51.178;4.450;2023-07-20T10:58:14;26.10;90.70
25937;DHT22;13733;51.178;4.450;2023-07-20T11:09:14;25.50;86.50
25937;DHT22;13733;51.178;4.450;2023-07-20T11:11:42;25.60;85.90
25937;DHT22;13733;51.178;4.450;2023-07-20T11:14:11;25.60;86.80
25937;DHT22;13733;51.178;4.450;2023-07-20T11:16:47;25.80;85.30
25937;DHT22;13733;51.178;4.450;2023-07-20T11:19:31;25.90;82.40
25937;DHT22;13733;51.178;4.450;2023-07-20T11:21:57;25.90;82.60
25937;DHT22;13733;51.178;4.450;2023-07-20T11:24:23;26.00;83.30
25937;DHT22;13733;51.178;4.450;2023-07-20T11:26:51;26.20;83.20
25937;DHT22;13733;51.178;4.450;2023-07-20T11:29:21;26.30;81.80
25937;DHT22;13733;51.178;4.450;2023-07-20T11:31:49;26.60;81.30
25937;DHT22;13733;51.178;4.450;2023-07-20T11:34:18;27.10;79.30
25937;DHT22;13733;51.178;4.450;2023-07-20T11:36:47;27.50;78.20
25937;DHT22;13733;51.178;4.450;2023-07-20T11:39:14;28.30;77.50
25937;DHT22;13733;51.178;4.450;2023-07-20T11:41:46;28.80;72.90
25937;DHT22;13733;51.178;4.450;2023-07-20T11:44:13;29.50;69.40
25937;DHT22;13733;51.178;4.450;2023-07-20T11:46:39;29.90;67.40
25937;DHT22;13733;51.178;4.450;2023-07-20T11:49:05;29.10;66.20
25937;DHT22;13733;51.178;4.450;2023-07-20T11:51:33;28.60;67.80
25937;DHT22;13733;51.178;4.450;2023-07-20T11:54:01;28.50;68.70
25937;DHT22;13733;51.178;4.450;2023-07-20T11:56:28;28.70;64.80
25937;DHT22;13733;51.178;4.450;2023-07-20T11:58:58;28.50;65.30
25937;DHT22;13733;51.178;4.450;2023-07-20T12:01:26;28.60;63.90
25937;DHT22;13733;51.178;4.450;2023-07-20T12:03:58;28.70;64.00
25937;DHT22;13733;51.178;4.450;2023-07-20T12:06:25;28.90;63.70
25937;DHT22;13733;51.178;4.450;2023-07-20T12:08:55;29.90;59.60
25937;DHT22;13733;51.178;4.450;2023-07-20T12:13:58;30.30;55.70
25937;DHT22;13733;51.178;4.450;2023-07-20T12:16:27;29.40;57.80
25937;DHT22;13733;51.178;4.450;2023-07-20T12:21:26;28.30;60.70
25937;DHT22;13733;51.178;4.450;2023-07-20T12:23:52;27.40;61.80
25937;DHT22;13733;51.178;4.450;2023-07-20T12:26:20;26.80;63.80
25937;DHT22;13733;51.178;4.450;2023-07-20T12:28:47;26.20;66.40
25937;DHT22;13733;51.178;4.450;2023-07-20T12:31:14;25.90;68.30
25937;DHT22;13733;51.178;4.450;2023-07-20T12:33:40;25.60;69.30
25937;DHT22;13733;51.178;4.450;2023-07-20T12:36:06;25.60;71.10
25937;DHT22;13733;51.178;4.450;2023-07-20T12:38:32;25.70;71.40
25937;DHT22;13733;51.178;4.450;2023-07-20T12:41:00;25.60;67.80
25937;DHT22;13733;51.178;4.450;2023-07-20T12:43:26;25.50;68.30
25937;DHT22;13733;51.178;4.450;2023-07-20T12:45:52;25.60;69.10
25937;DHT22;13733;51.178;4.450;2023-07-20T12:48:18;25.70;67.20
25937;DHT22;13733;51.178;4.450;2023-07-20T12:50:44;25.60;69.10
25937;DHT22;13733;51.178;4.450;2023-07-20T12:53:10;25.10;71.00
25937;DHT22;13733;51.178;4.450;2023-07-20T12:55:37;25.10;72.20
25937;DHT22;13733;51.178;4.450;2023-07-20T12:58:03;25.10;73.20
25937;DHT22;13733;51.178;4.450;2023-07-20T13:00:29;24.90;72.50
25937;DHT22;13733;51.178;4.450;2023-07-20T13:02:55;24.50;75.80
25937;DHT22;13733;51.178;4.450;2023-07-20T13:05:20;24.30;76.30
25937;DHT22;13733;51.178;4.450;2023-07-20T13:07:46;24.20;76.30
25937;DHT22;13733;51.178;4.450;2023-07-20T13:10:12;24.00;77.20
25937;DHT22;13733;51.178;4.450;2023-07-20T13:12:38;24.10;78.60
25937;DHT22;13733;51.178;4.450;2023-07-20T13:15:05;23.90;79.30
25937;DHT22;13733;51.178;4.450;2023-07-20T13:17:33;23.60;81.20
25937;DHT22;13733;51.178;4.450;2023-07-20T13:19:59;23.70;81.00
25937;DHT22;13733;51.178;4.450;2023-07-20T13:22:24;23.70;82.50
25937;DHT22;13733;51.178;4.450;2023-07-20T13:24:50;23.70;83.80
25937;DHT22;13733;51.178;4.450;2023-07-20T13:27:17;23.70;84.30
25937;DHT22;13733;51.178;4.450;2023-07-20T13:29:43;23.70;84.60
25937;DHT22;13733;51.178;4.450;2023-07-20T13:32:10;23.60;85.90
25937;DHT22;13733;51.178;4.450;2023-07-20T13:34:36;23.70;86.30
25937;DHT22;13733;51.178;4.450;2023-07-20T13:37:02;23.70;87.10
25937;DHT22;13733;51.178;4.450;2023-07-20T13:39:28;23.60;88.10
25937;DHT22;13733;51.178;4.450;2023-07-20T13:41:54;23.80;88.30
25937;DHT22;13733;51.178;4.450;2023-07-20T13:44:20;24.10;88.00
25937;DHT22;13733;51.178;4.450;2023-07-20T13:46:47;24.10;86.60
25937;DHT22;13733;51.178;4.450;2023-07-20T13:49:13;24.30;84.60
25937;DHT22;13733;51.178;4.450;2023-07-20T13:51:41;24.30;83.70
25937;DHT22;13733;51.178;4.450;2023-07-20T13:54:06;24.10;83.40
25937;DHT22;13733;51.178;4.450;2023-07-20T13:56:32;24.20;84.10
25937;DHT22;13733;51.178;4.450;2023-07-20T13:58:58;24.30;83.80
25937;DHT22;13733;51.178;4.450;2023-07-20T14:01:24;24.40;84.30
25937;DHT22;13733;51.178;4.450;2023-07-20T14:03:50;24.60;84.70
25937;DHT22;13733;51.178;4.450;2023-07-20T14:06:16;24.40;84.70
25937;DHT22;13733;51.178;4.450;2023-07-20T14:08:43;24.50;84.90
25937;DHT22;13733;51.178;4.450;2023-07-20T14:11:13;24.60;84.80
25937;DHT22;13733;51.178;4.450;2023-07-20T14:13:39;24.50;86.00
25937;DHT22;13733;51.178;4.450;2023-07-20T14:16:05;24.40;85.90
25937;DHT22;13733;51.178;4.450;2023-07-20T14:18:31;24.30;86.50
25937;DHT22;13733;51.178;4.450;2023-07-20T14:20:56;24.20;87.20
25937;DHT22;13733;51.178;4.450;2023-07-20T14:23:22;24.20;87.80
25937;DHT22;13733;51.178;4.450;2023-07-20T14:25:49;24.20;87.50
25937;DHT22;13733;51.178;4.450;2023-07-20T14:28:14;24.20;90.20
25937;DHT22;13733;51.178;4.450;2023-07-20T14:30:41;24.30;88.20
25937;DHT22;13733;51.178;4.450;2023-07-20T14:33:07;24.10;90.00
25937;DHT22;13733;51.178;4.450;2023-07-20T14:35:33;24.00;90.20
25937;DHT22;13733;51.178;4.450;2023-07-20T14:38:00;24.00;90.20
25937;DHT22;13733;51.178;4.450;2023-07-20T14:40:26;24.00;90.50
25937;DHT22;13733;51.178;4.450;2023-07-20T14:42:52;24.10;90.40
25937;DHT22;13733;51.178;4.450;2023-07-20T14:45:18;24.00;90.10
25937;DHT22;13733;51.178;4.450;2023-07-20T14:47:44;24.00;90.00
25937;DHT22;13733;51.178;4.450;2023-07-20T14:50:11;23.90;90.10
25937;DHT22;13733;51.178;4.450;2023-07-20T14:52:37;23.90;90.30
25937;DHT22;13733;51.178;4.450;2023-07-20T14:55:04;24.10;90.60
25937;DHT22;13733;51.178;4.450;2023-07-20T14:57:30;24.10;90.30
25937;DHT22;13733;51.178;4.450;2023-07-20T14:59:55;24.00;90.20
25937;DHT22;13733;51.178;4.450;2023-07-20T15:02:21;24.10;88.80
25937;DHT22;13733;51.178;4.450;2023-07-20T15:04:50;24.20;88.80
25937;DHT22;13733;51.178;4.450;2023-07-20T15:07:20;24.30;89.40
25937;DHT22;13733;51.178;4.450;2023-07-20T15:09:47;24.20;89.40
25937;DHT22;13733;51.178;4.450;2023-07-20T15:12:13;23.90;90.20
25937;DHT22;13733;51.178;4.450;2023-07-20T15:14:42;24.10;90.30
25937;DHT22;13733;51.178;4.450;2023-07-20T15:17:11;24.10;90.20
25937;DHT22;13733;51.178;4.450;2023-07-20T15:19:38;24.00;90.40
25937;DHT22;13733;51.178;4.450;2023-07-20T15:22:04;23.80;90.30
25937;DHT22;13733;51.178;4.450;2023-07-20T15:24:30;24.00;90.70
25937;DHT22;13733;51.178;4.450;2023-07-20T15:26:56;24.00;90.10
25937;DHT22;13733;51.178;4.450;2023-07-20T15:29:23;24.00;89.50
25937;DHT22;13733;51.178;4.450;2023-07-20T15:31:49;24.00;90.90
25937;DHT22;13733;51.178;4.450;2023-07-20T15:34:15;23.70;90.60
25937;DHT22;13733;51.178;4.450;2023-07-20T15:36:41;23.60;91.80
25937;DHT22;13733;51.178;4.450;2023-07-20T15:39:09;23.30;93.20
25937;DHT22;13733;51.178;4.450;2023-07-20T15:41:34;23.20;94.00
25937;DHT22;13733;51.178;4.450;2023-07-20T15:44:00;23.20;94.30
25937;DHT22;13733;51.178;4.450;2023-07-20T15:46:44;23.10;95.20
25937;DHT22;13733;51.178;4.450;2023-07-20T15:49:11;22.80;97.00
25937;DHT22;13733;51.178;4.450;2023-07-20T15:51:37;22.70;97.80